Flight Track Log - Related Links

Times and Time Zones

All times are in EDT time to prevent confusion due to time zone crossing. See the SWA3121 flight status page for this flight to view local times or setup timezone preferences in your user account.

Time Position Orientation Groundspeed Altitude Reporting Facility
EDT Latitude Longitude Course Direction KTS MPH feet Rate Location/Type
Sun 05:36:24 PM 36.0333 -86.6667 174° South 223 257 4,500  Level Nashville TRACON
Sun 05:36:45 PM 36.0222 -86.6614 159° South 225 259 5,400 3,333 Climbing Memphis Center
Sun 05:37:45 PM 35.9647 -86.6281 155° Southeast 225 259 9,000 2,650 Climbing Memphis Center
Sun 05:38:45 PM 35.8967 -86.5800 150° Southeast 263 303 10,700 2,400 Climbing Memphis Center
Sun 05:39:45 PM 35.8117 -86.5250 152° Southeast 327 376 13,800 3,250 Climbing Memphis Center
Sun 05:40:45 PM 35.7158 -86.4656 153° Southeast 369 425 17,200 3,200 Climbing Memphis Center
Sun 05:41:45 PM 35.6044 -86.4375 168° South 375 432 20,200 2,850 Climbing Memphis Center
Sun 05:42:45 PM 35.4994 -86.4169 171° South 382 440 22,900 1,901 Climbing Memphis Center
Sun 05:45:07 PM 35.2547 -86.3228 163° South 398 458 26,600 1,604 Climbing Atlanta Center
Sun 05:46:07 PM 35.1578 -86.2667 155° Southeast 398 458 28,300 1,550 Climbing Atlanta Center
Sun 05:47:07 PM 35.0503 -86.2081 156° South 398 458 29,700 1,400 Climbing Atlanta Center
Sun 05:48:07 PM 34.9642 -86.1272 142° Southeast 414 476 31,100 1,700 Climbing Atlanta Center
Sun 05:49:07 PM 34.8722 -86.0008 132° Southeast 435 501 33,100 1,900 Climbing Atlanta Center
Sun 05:50:07 PM 34.7864 -85.8875 133° Southeast 440 506 34,900 1,500 Climbing Atlanta Center
Sun 05:51:07 PM 34.7000 -85.8047 142° Southeast 445 512 36,100 1,200 Climbing Atlanta Center
Sun 05:52:07 PM 34.5944 -85.7344 151° Southeast 445 512 37,300 1,250 Climbing Atlanta Center
Sun 05:53:07 PM 34.4889 -85.6642 151° Southeast 440 506 38,600 850 Climbing Atlanta Center
Sun 05:54:07 PM 34.3833 -85.5942 151° Southeast 435 501 39,000 200 Climbing Atlanta Center
Sun 05:55:07 PM 34.2781 -85.5194 150° Southeast 430 495 39,000  Level Atlanta Center
Sun 05:56:07 PM 34.1744 -85.4500 151° Southeast 430 495 39,000  Level Atlanta Center
Sun 05:57:07 PM 34.0647 -85.3753 151° Southeast 430 495 39,000  Level Atlanta Center
Sun 05:58:07 PM 33.9547 -85.3061 152° Southeast 435 501 39,000  Level Atlanta Center
Sun 05:59:07 PM 33.8364 -85.2292 152° Southeast 440 506 39,000  Level Atlanta Center
Sun 06:00:07 PM 33.7267 -85.1578 152° Southeast 445 512 39,000  Level Atlanta Center
Sun 06:01:07 PM 33.6144 -85.0839 151° Southeast 451 519 39,000  Level Atlanta Center
Sun 06:02:07 PM 33.5086 -85.0131 151° Southeast 451 519 39,000  Level Atlanta Center
Sun 06:03:07 PM 33.3986 -84.9419 152° Southeast 451 519 39,000  Level Atlanta Center
Sun 06:04:07 PM 33.2906 -84.8714 151° Southeast 451 519 39,000  Level Atlanta Center
Sun 06:05:07 PM 33.1844 -84.8058 153° Southeast 446 513 39,000  Level Atlanta Center
Sun 06:06:07 PM 33.0700 -84.7528 159° South 441 507 39,000  Level Atlanta Center
Sun 06:07:07 PM 32.9575 -84.7122 163° South 435 501 39,000  Level Atlanta Center
Sun 06:08:07 PM 32.8408 -84.6717 164° South 430 495 39,000  Level Atlanta Center
Sun 06:09:07 PM 32.7408 -84.6364 163° South 430 495 39,000  Level Atlanta Center
Sun 06:10:07 PM 32.6261 -84.5986 164° South 425 489 39,000  Level Atlanta Center
Sun 06:11:07 PM 32.5158 -84.5439 157° South 425 489 39,000  Level Atlanta Center
Sun 06:12:07 PM 32.4097 -84.4644 148° Southeast 438 504 39,000  Level Atlanta Center
Sun 06:13:07 PM 32.3075 -84.3878 148° Southeast 438 504 39,000  Level Atlanta Center
Sun 06:14:07 PM 32.2033 -84.3114 148° Southeast 443 510 39,000  Level Atlanta Center
Sun 06:15:07 PM 32.0992 -84.2375 149° Southeast 443 510 39,000  Level Atlanta Center
Sun 06:15:28 PM 32.0511 -84.1989 146° Southeast 442 509 39,000  Level Jacksonville Center
Sun 06:16:28 PM 31.9475 -84.1242 149° Southeast 437 503 39,000  Level Jacksonville Center
Sun 06:17:28 PM 31.8419 -84.0494 149° Southeast 437 503 39,000  Level Jacksonville Center
Sun 06:18:28 PM 31.7339 -83.9697 148° Southeast 448 516 39,000  Level Jacksonville Center
Sun 06:19:28 PM 31.6364 -83.9003 149° Southeast 448 516 39,000  Level Jacksonville Center
Sun 06:20:28 PM 31.5283 -83.8236 149° Southeast 454 522 39,000  Level Jacksonville Center
Sun 06:21:28 PM 31.4244 -83.7447 147° Southeast 454 522 39,000  Level Jacksonville Center
Sun 06:22:28 PM 31.3228 -83.6611 145° Southeast 449 517 39,000  Level Jacksonville Center
Sun 06:23:28 PM 31.2253 -83.5728 142° Southeast 449 517 39,000 -500 Level Jacksonville Center
Sun 06:24:28 PM 31.1233 -83.4800 142° Southeast 454 522 38,000 -1,800 Descending Jacksonville Center
Sun 06:25:28 PM 31.0256 -83.3919 142° Southeast 459 528 35,400 -2,600 Descending Jacksonville Center
Sun 06:26:28 PM 30.9236 -83.3019 143° Southeast 453 521 32,800 -1,750 Descending Jacksonville Center
Sun 06:27:28 PM 30.8256 -83.2094 141° Southeast 458 527 31,900 -1,700 Descending Jacksonville Center
Sun 06:28:28 PM 30.7236 -83.1172 142° Southeast 458 527 29,400 -1,450 Descending Jacksonville Center
Sun 06:29:28 PM 30.6214 -83.0447 149° Southeast 451 519 29,000 -450 Descending Jacksonville Center
Sun 06:30:28 PM 30.5233 -82.9650 145° Southeast 440 506 28,500 -950 Descending Jacksonville Center
Sun 06:31:28 PM 30.4522 -82.8564 127° Southeast 421 484 27,100 -1,400 Descending Jacksonville Center
Sun 06:32:28 PM 30.3731 -82.7578 133° Southeast 415 478 25,700 -1,050 Descending Jacksonville Center
Sun 06:33:28 PM 30.2789 -82.6881 147° Southeast 410 472 25,000 -350 Descending Jacksonville Center
Sun 06:34:28 PM 30.1703 -82.6211 152° Southeast 405 466 25,000  Level Jacksonville Center
Sun 06:35:28 PM 30.0697 -82.5661 155° Southeast 400 460 25,000  Level Jacksonville Center
Sun 06:36:28 PM 29.9800 -82.5161 154° Southeast 400 460 25,000  Level Jacksonville Center
Sun 06:37:28 PM 29.8692 -82.4567 155° Southeast 400 460 25,000  Level Jacksonville Center
Sun 06:38:28 PM 29.7686 -82.4044 156° South 400 460 25,000  Level Jacksonville Center
Sun 06:39:28 PM 29.6703 -82.3500 154° Southeast 400 460 25,000  Level Jacksonville Center
Sun 06:40:28 PM 29.5700 -82.2956 155° Southeast 400 460 25,000 -850 Level Jacksonville Center
Sun 06:41:28 PM 29.4672 -82.2439 156° South 400 460 23,300 -1,900 Descending Jacksonville Center
Sun 06:42:28 PM 29.3711 -82.1919 155° Southeast 395 455 21,200 -2,100 Descending Jacksonville Center
Sun 06:43:28 PM 29.2769 -82.1403 154° Southeast 390 449 19,100 -2,050 Descending Jacksonville Center
Sun 06:44:28 PM 29.1825 -82.0911 156° South 379 436 17,100 -2,050 Descending Jacksonville Center
Sun 06:45:28 PM 29.0925 -82.0419 154° Southeast 374 430 15,000 -2,050 Descending Jacksonville Center
Sun 06:46:28 PM 29.0067 -81.9975 156° South 361 415 13,000 -1,900 Descending Jacksonville Center
Sun 06:47:28 PM 28.9208 -81.9508 155° Southeast 348 400 11,200 -1,050 Descending Jacksonville Center
Sun 06:48:28 PM 28.8619 -81.8897 138° Southeast 302 348 10,900 -527 Descending Jacksonville Center
Sun 06:48:59 PM 28.8333 -81.8500 129° Southeast 284 327 10,400 -989 Descending Orlando TRACON
Sun 06:49:59 PM 28.8167 -81.7667 103° East 298 343 9,400 -1,043 Descending Orlando TRACON
Sun 06:50:54 PM 28.8000 -81.6833 103° East 286 329 8,400 -1,043 Descending Orlando TRACON
Sun 06:51:54 PM 28.8000 -81.5833 90° East 280 322 7,400 -900 Descending Orlando TRACON
Sun 06:52:54 PM 28.7833 -81.5167 106° East 246 283 6,600 -700 Descending Orlando TRACON
Sun 06:53:54 PM 28.7667 -81.4333 103° East 246 283 6,000 -600 Descending Orlando TRACON
Sun 06:54:54 PM 28.7500 -81.3667 106° East 207 238 5,400 -800 Descending Orlando TRACON
Sun 06:55:54 PM 28.7167 -81.3333 139° Southeast 200 230 4,400 -1,000 Descending Orlando TRACON
Sun 06:56:54 PM 28.6667 -81.3000 150° Southeast 195 224 3,400 -700 Descending Orlando TRACON
Sun 06:57:54 PM 28.6167 -81.2833 164° South 190 219 3,000 -450 Descending Orlando TRACON
Sun 06:58:54 PM 28.5667 -81.2833 180° South 175 201 2,500 -600 Descending Orlando TRACON
Sun 06:59:54 PM 28.5167 -81.3000 196° South 175 201 1,800 -750 Descending Orlando TRACON
Sun 07:00:54 PM 28.4833 -81.3000 180° South 138 159 1,000 -800 Descending Orlando TRACON
Sun 07:02:00 PM 28.4294 -81.3090 180° South  Level Estimated
Sun 07:09:00 PM 28.4294 -81.3090 24° Northeast  Level Estimated
Sun 07:10:00 PM 28.4294 -81.3090 24° Northeast  Level Estimated
Sun 07:11:00 PM 28.4294 -81.3090 24° Northeast  Level Estimated
Sun 07:12:00 PM 28.4294 -81.3090 24° Northeast  Level Estimated
Sun 07:13:00 PM 28.4294 -81.3090 24° Northeast  Level Estimated

Login

Don't have an account? Register now (free) for customized features, flight alerts, and more!